createdAt,value
2023-03-24T00:01:23.078Z,2.72
2023-03-24T00:03:52.611Z,4.20
2023-03-24T00:06:22.385Z,4.53
2023-03-24T00:08:49.227Z,3.58
2023-03-24T00:11:18.522Z,4.30
2023-03-24T00:13:47.109Z,5.20
2023-03-24T00:16:16.904Z,6.88
2023-03-24T00:18:44.214Z,3.40
2023-03-24T00:21:12.929Z,4.13
2023-03-24T00:23:42.604Z,4.32
2023-03-24T00:26:15.078Z,3.25
2023-03-24T00:28:46.081Z,4.35
2023-03-24T00:31:18.875Z,3.78
2023-03-24T00:33:51.463Z,3.45
2023-03-24T00:36:23.182Z,4.40
2023-03-24T00:38:50.561Z,6.10
2023-03-24T00:41:19.787Z,3.80
2023-03-24T00:43:48.947Z,5.28
2023-03-24T00:46:30.454Z,4.72
2023-03-24T00:49:07.627Z,3.15
2023-03-24T00:51:38.630Z,3.47
2023-03-24T00:54:11.046Z,3.15
2023-03-24T00:56:40.838Z,4.95
2023-03-24T00:59:10.028Z,2.47
2023-03-24T01:01:40.665Z,7.65
2023-03-24T01:04:07.626Z,4.00
2023-03-24T01:06:37.060Z,3.05
2023-03-24T01:09:05.976Z,3.20
2023-03-24T01:11:38.493Z,2.60
2023-03-24T01:14:06.009Z,3.63
2023-03-24T01:16:32.932Z,4.50
2023-03-24T01:19:00.483Z,2.70
2023-03-24T01:21:27.333Z,3.25
2023-03-24T01:23:54.836Z,3.00
2023-03-24T01:26:21.633Z,2.83
2023-03-24T01:28:48.447Z,3.60
2023-03-24T01:31:15.321Z,3.72
2023-03-24T01:33:42.259Z,4.82
2023-03-24T01:36:11.536Z,4.97
2023-03-24T01:38:38.671Z,4.97
2023-03-24T01:41:06.916Z,3.22
2023-03-24T01:43:35.847Z,3.35
2023-03-24T01:46:22.856Z,2.80
2023-03-24T01:49:01.481Z,3.95
2023-03-24T01:51:56.250Z,2.42
2023-03-24T01:54:54.955Z,4.07
2023-03-24T01:57:29.698Z,3.80
2023-03-24T02:00:01.167Z,2.45
2023-03-24T02:02:28.187Z,2.70
2023-03-24T02:05:02.916Z,3.15
2023-03-24T02:07:50.547Z,3.50
2023-03-24T02:10:20.690Z,3.92
2023-03-24T02:12:47.806Z,2.92
2023-03-24T02:15:18.034Z,4.97
2023-03-24T02:18:13.390Z,4.10
2023-03-24T02:21:30.227Z,3.00
2023-03-24T02:24:28.645Z,2.35
2023-03-24T02:27:30.335Z,2.28
2023-03-24T02:30:47.437Z,2.17
2023-03-24T02:33:59.562Z,6.25
2023-03-24T02:36:58.342Z,2.28
2023-03-24T02:39:32.360Z,1.38
2023-03-24T02:42:37.404Z,2.63
2023-03-24T02:45:12.105Z,1.80
2023-03-24T02:47:44.457Z,3.60
2023-03-24T02:50:41.142Z,2.65
2023-03-24T02:53:27.698Z,3.10
2023-03-24T02:56:30.914Z,3.28
2023-03-24T02:59:06.432Z,3.80
2023-03-24T03:01:54.602Z,1.80
2023-03-24T03:04:36.962Z,4.88
2023-03-24T03:07:09.954Z,2.53
2023-03-24T03:09:47.373Z,2.60
2023-03-24T03:12:15.685Z,5.53
2023-03-24T03:14:56.767Z,6.32
2023-03-24T03:17:33.011Z,7.00
2023-03-24T03:20:07.959Z,4.82
2023-03-24T03:22:49.624Z,4.25
2023-03-24T03:25:23.808Z,2.00
2023-03-24T03:27:54.975Z,2.75
2023-03-24T03:30:40.514Z,3.95
2023-03-24T03:33:25.565Z,9.48
2023-03-24T03:36:28.396Z,5.47
2023-03-24T03:39:07.035Z,6.72
2023-03-24T03:41:33.980Z,7.95
2023-03-24T03:44:08.540Z,7.60
2023-03-24T03:46:37.078Z,7.40
2023-03-24T03:49:06.583Z,6.63
2023-03-24T03:51:34.773Z,7.70
2023-03-24T03:54:07.243Z,6.18
2023-03-24T03:56:36.774Z,7.18
2023-03-24T03:59:06.890Z,5.85
2023-03-24T04:01:37.450Z,3.70
2023-03-24T04:05:05.694Z,5.82
2023-03-24T04:07:40.149Z,7.50
2023-03-24T04:10:38.961Z,7.00
2023-03-24T04:13:25.044Z,8.25
2023-03-24T04:16:03.522Z,8.23
2023-03-24T04:18:57.476Z,6.20
2023-03-24T04:21:54.980Z,6.97
2023-03-24T04:24:56.539Z,7.40
2023-03-24T04:28:09.940Z,8.40
2023-03-24T04:30:47.945Z,6.60
2023-03-24T04:33:48.678Z,7.72
2023-03-24T04:36:43.797Z,10.63
2023-03-24T04:39:17.051Z,6.32
2023-03-24T04:41:47.711Z,8.38
2023-03-24T04:44:19.617Z,7.35
2023-03-24T04:46:47.106Z,10.18
2023-03-24T04:49:13.865Z,12.63
2023-03-24T04:51:41.369Z,9.52
2023-03-24T04:54:08.134Z,13.20
2023-03-24T04:56:47.653Z,9.38
2023-03-24T04:59:15.871Z,9.55
2023-03-24T05:01:50.011Z,9.00
2023-03-24T05:04:20.414Z,7.95
2023-03-24T05:06:51.576Z,7.07
2023-03-24T05:09:23.993Z,12.00
2023-03-24T05:11:51.896Z,6.93
2023-03-24T05:14:19.206Z,11.65
2023-03-24T05:16:46.129Z,9.93
2023-03-24T05:19:13.567Z,10.60
2023-03-24T05:21:43.588Z,9.80
2023-03-24T05:24:10.643Z,9.63
2023-03-24T05:26:37.382Z,14.18
2023-03-24T05:29:04.170Z,6.75
2023-03-24T05:31:31.032Z,13.75
2023-03-24T05:33:57.746Z,9.43
2023-03-24T05:36:24.588Z,16.80
2023-03-24T05:38:51.343Z,10.63
2023-03-24T05:41:18.178Z,15.30
2023-03-24T05:43:47.418Z,13.02
2023-03-24T05:46:14.159Z,13.40
2023-03-24T05:48:41.138Z,12.60
2023-03-24T05:51:08.666Z,9.55
2023-03-24T05:53:36.986Z,22.58
2023-03-24T05:56:05.839Z,16.08
2023-03-24T05:58:34.647Z,9.60
2023-03-24T06:01:08.633Z,15.60
2023-03-24T06:03:38.857Z,12.38
2023-03-24T06:06:09.593Z,15.38
2023-03-24T06:08:38.264Z,11.05
2023-03-24T06:11:05.502Z,12.13
2023-03-24T06:13:32.662Z,13.13
2023-03-24T06:16:03.027Z,8.53
2023-03-24T06:18:34.057Z,8.55
2023-03-24T06:21:00.870Z,11.68
2023-03-24T06:23:29.249Z,11.73
2023-03-24T06:25:58.338Z,15.83
2023-03-24T06:28:34.417Z,10.25
2023-03-24T06:31:01.296Z,9.82
2023-03-24T06:33:28.180Z,9.53
2023-03-24T06:36:01.934Z,10.98
2023-03-24T06:38:28.843Z,20.25
2023-03-24T06:41:01.454Z,17.58
2023-03-24T06:43:28.289Z,11.02
2023-03-24T06:45:55.052Z,12.90
2023-03-24T06:48:22.270Z,11.30
2023-03-24T06:50:49.276Z,11.52
2023-03-24T06:53:16.915Z,7.70
2023-03-24T06:55:43.825Z,9.10
2023-03-24T06:58:10.941Z,13.18
2023-03-24T07:00:38.040Z,7.85
2023-03-24T07:03:08.231Z,11.70
2023-03-24T07:05:44.578Z,12.20
2023-03-24T07:10:44.043Z,9.63
2023-03-24T07:13:11.558Z,9.82
2023-03-24T07:15:38.289Z,10.30
2023-03-24T07:18:05.172Z,7.13
2023-03-24T07:20:39.338Z,7.78
2023-03-24T07:23:07.192Z,8.75
2023-03-24T07:25:34.286Z,9.68
2023-03-24T07:28:02.063Z,15.65
2023-03-24T07:30:41.211Z,13.93
2023-03-24T07:33:12.413Z,13.20
2023-03-24T07:35:41.676Z,11.77
2023-03-24T07:38:17.813Z,11.90
2023-03-24T07:40:44.739Z,8.68
2023-03-24T07:43:23.596Z,8.65
2023-03-24T07:45:51.043Z,9.45
2023-03-24T07:48:17.873Z,8.30
2023-03-24T07:50:44.899Z,8.95
2023-03-24T07:53:11.840Z,9.70
2023-03-24T07:55:39.039Z,9.85
2023-03-24T07:58:06.242Z,7.13
2023-03-24T08:00:33.593Z,11.73
2023-03-24T08:03:00.969Z,9.15
2023-03-24T08:05:30.643Z,10.32
2023-03-24T08:07:58.446Z,13.65
2023-03-24T08:10:30.040Z,8.63
2023-03-24T08:12:58.934Z,8.32
2023-03-24T08:15:28.179Z,8.77
2023-03-24T08:17:56.730Z,12.60
2023-03-24T08:20:27.006Z,14.55
2023-03-24T08:22:54.404Z,12.88
2023-03-24T08:25:25.130Z,9.43
2023-03-24T08:27:53.217Z,11.95
2023-03-24T08:30:23.848Z,12.95
2023-03-24T08:32:55.994Z,9.85
2023-03-24T08:35:33.038Z,6.80
2023-03-24T08:38:04.655Z,11.00
2023-03-24T08:40:35.206Z,11.50
2023-03-24T08:43:08.236Z,7.50
2023-03-24T08:45:38.603Z,7.38
2023-03-24T08:48:08.256Z,9.38
2023-03-24T08:50:39.902Z,14.15
2023-03-24T08:53:08.611Z,8.82
2023-03-24T08:55:37.690Z,10.00
2023-03-24T08:58:04.645Z,10.80
2023-03-24T09:00:31.616Z,8.45
2023-03-24T09:03:01.734Z,8.95
2023-03-24T09:05:41.434Z,8.45
2023-03-24T09:08:17.111Z,12.20
2023-03-24T09:10:46.843Z,9.55
2023-03-24T09:13:14.484Z,7.97
2023-03-24T09:15:48.672Z,6.43
2023-03-24T09:18:16.182Z,7.20
2023-03-24T09:20:43.796Z,6.45
2023-03-24T09:23:11.110Z,7.95
2023-03-24T09:25:38.007Z,7.10
2023-03-24T09:28:06.151Z,11.70
2023-03-24T09:30:35.209Z,8.02
2023-03-24T09:33:02.434Z,6.93
2023-03-24T09:35:29.778Z,8.90
2023-03-24T09:38:07.345Z,8.52
2023-03-24T09:40:54.389Z,9.45
2023-03-24T09:43:33.217Z,9.65
2023-03-24T09:46:04.485Z,7.43
2023-03-24T09:48:58.686Z,8.98
2023-03-24T09:51:32.640Z,9.90
2023-03-24T09:54:19.602Z,8.32
2023-03-24T09:56:48.738Z,12.13
2023-03-24T09:59:37.613Z,9.25
2023-03-24T10:02:15.159Z,7.80
2023-03-24T10:04:42.631Z,6.72
2023-03-24T10:07:43.157Z,6.70
2023-03-24T10:10:32.019Z,8.23
2023-03-24T10:13:08.037Z,9.07
2023-03-24T10:15:55.088Z,8.40
2023-03-24T10:19:17.092Z,12.57
2023-03-24T10:22:32.162Z,8.75
2023-03-24T10:25:32.135Z,5.28
2023-03-24T10:28:27.072Z,13.80
2023-03-24T10:30:59.639Z,9.70
2023-03-24T10:33:27.017Z,8.60
2023-03-24T10:36:11.206Z,7.70
2023-03-24T10:38:37.999Z,6.60
2023-03-24T10:41:05.519Z,10.20
2023-03-24T10:43:33.297Z,7.93
2023-03-24T10:46:02.088Z,11.50
2023-03-24T10:48:49.788Z,8.25
2023-03-24T10:51:27.580Z,6.93
2023-03-24T10:54:23.977Z,9.07
2023-03-24T10:57:04.023Z,4.82
2023-03-24T10:59:47.552Z,14.65
2023-03-24T11:02:33.725Z,9.90
2023-03-24T11:05:15.415Z,5.45
2023-03-24T11:07:46.707Z,4.75
2023-03-24T11:10:18.846Z,5.60
2023-03-24T11:12:54.967Z,7.07
2023-03-24T11:15:23.954Z,8.65
2023-03-24T11:18:03.773Z,7.22
2023-03-24T11:21:00.989Z,9.48
2023-03-24T11:23:38.973Z,9.57
2023-03-24T11:26:36.982Z,6.40
2023-03-24T11:29:12.200Z,6.60
2023-03-24T11:31:40.381Z,8.05
2023-03-24T11:34:42.241Z,9.32
2023-03-24T11:37:22.520Z,5.70
2023-03-24T11:40:22.351Z,9.95
2023-03-24T11:42:58.900Z,5.18
2023-03-24T11:45:39.056Z,6.70
2023-03-24T11:48:48.409Z,8.43
2023-03-24T11:51:34.311Z,7.78
2023-03-24T11:54:06.885Z,7.05
2023-03-24T11:56:47.278Z,9.75
2023-03-24T11:59:36.755Z,8.30
2023-03-24T12:02:48.264Z,5.70
2023-03-24T12:05:18.184Z,9.85
2023-03-24T12:08:19.755Z,5.32
2023-03-24T12:11:31.191Z,7.00
2023-03-24T12:14:02.169Z,6.18
2023-03-24T12:16:55.946Z,6.53
2023-03-24T12:20:34.189Z,8.40
2023-03-24T12:23:36.079Z,9.10
2023-03-24T12:26:31.089Z,4.95
2023-03-24T12:29:37.558Z,2.78
2023-03-24T12:32:45.011Z,4.38
2023-03-24T12:35:46.722Z,3.35
2023-03-24T12:38:38.483Z,2.25
2023-03-24T12:41:33.040Z,7.72
2023-03-24T12:44:18.232Z,5.97
2023-03-24T12:47:23.046Z,6.13
2023-03-24T12:50:33.476Z,8.43
2023-03-24T12:53:53.679Z,4.88
2023-03-24T12:56:35.696Z,2.53
2023-03-24T12:59:14.546Z,8.35
2023-03-24T13:02:35.240Z,6.97
2023-03-24T13:05:16.136Z,5.63
2023-03-24T13:07:47.328Z,6.07
2023-03-24T13:10:21.624Z,3.40
2023-03-24T13:13:02.041Z,7.63
2023-03-24T13:15:46.164Z,6.60
2023-03-24T13:18:46.000Z,6.15
2023-03-24T13:21:21.406Z,7.40
2023-03-24T13:24:12.872Z,4.05
2023-03-24T13:27:12.225Z,10.02
2023-03-24T13:29:49.433Z,7.72
2023-03-24T13:32:28.044Z,5.40
2023-03-24T13:35:40.957Z,7.35
2023-03-24T13:38:38.405Z,9.20
2023-03-24T13:41:10.936Z,5.78
2023-03-24T13:43:48.530Z,8.07
2023-03-24T13:46:16.077Z,10.23
2023-03-24T13:48:50.270Z,5.97
2023-03-24T13:51:24.341Z,6.90
2023-03-24T13:54:15.944Z,6.72
2023-03-24T13:57:02.851Z,4.07
2023-03-24T14:00:01.934Z,3.78
2023-03-24T14:02:42.075Z,5.55
2023-03-24T14:05:32.510Z,6.68
2023-03-24T14:07:59.205Z,4.88
2023-03-24T14:10:26.050Z,7.30
2023-03-24T14:12:59.951Z,4.15
2023-03-24T14:15:34.827Z,6.32
2023-03-24T14:18:24.183Z,5.20
2023-03-24T14:20:57.340Z,3.58
2023-03-24T14:23:45.741Z,7.95
2023-03-24T14:26:27.808Z,3.65
2023-03-24T14:28:57.817Z,2.08
2023-03-24T14:31:30.900Z,6.75
2023-03-24T14:34:02.962Z,6.93
2023-03-24T14:36:39.418Z,4.90
2023-03-24T14:39:47.097Z,6.15
2023-03-24T14:42:33.700Z,3.42
2023-03-24T14:45:30.765Z,3.42
2023-03-24T14:48:06.691Z,5.95
2023-03-24T14:50:34.428Z,3.72
2023-03-24T14:53:03.882Z,5.20
2023-03-24T14:55:31.435Z,4.25
2023-03-24T14:58:11.002Z,5.57
2023-03-24T15:01:06.523Z,4.85
2023-03-24T15:03:59.323Z,5.90
2023-03-24T15:06:26.152Z,8.23
2023-03-24T15:09:06.930Z,6.00
2023-03-24T15:11:38.143Z,6.15
2023-03-24T15:14:22.469Z,5.03
2023-03-24T15:17:21.444Z,5.80
2023-03-24T15:19:52.675Z,7.82
2023-03-24T15:22:20.600Z,5.68
2023-03-24T15:24:51.214Z,6.78
2023-03-24T15:27:26.792Z,6.32
2023-03-24T15:30:00.692Z,5.80
2023-03-24T15:32:40.187Z,5.88
2023-03-24T15:35:14.432Z,6.93
2023-03-24T15:37:48.168Z,8.52
2023-03-24T15:40:30.972Z,9.98
2023-03-24T15:43:02.410Z,7.25
2023-03-24T15:45:30.702Z,7.88
2023-03-24T15:48:05.202Z,7.72
2023-03-24T15:50:42.147Z,7.10
2023-03-24T15:53:15.753Z,9.15
2023-03-24T15:55:43.861Z,6.40
2023-03-24T15:58:28.981Z,4.35
2023-03-24T16:01:02.433Z,7.82
2023-03-24T16:03:30.486Z,6.57
2023-03-24T16:05:57.592Z,6.72
2023-03-24T16:08:39.137Z,7.30
2023-03-24T16:11:12.183Z,7.85
2023-03-24T16:13:45.584Z,5.88
2023-03-24T16:16:15.844Z,8.45
2023-03-24T16:18:45.924Z,6.72
2023-03-24T16:21:21.821Z,11.75
2023-03-24T16:23:52.693Z,9.88
2023-03-24T16:26:22.815Z,10.32
2023-03-24T16:28:51.244Z,11.40
2023-03-24T16:31:36.680Z,4.22
2023-03-24T16:34:03.529Z,11.07
2023-03-24T16:36:30.688Z,11.95
2023-03-24T16:39:01.514Z,11.18
2023-03-24T16:41:29.193Z,9.95
2023-03-24T16:43:56.101Z,7.20
2023-03-24T16:46:33.283Z,7.07
2023-03-24T16:49:03.044Z,12.30
2023-03-24T16:51:30.259Z,8.50
2023-03-24T16:53:57.772Z,5.30
2023-03-24T16:56:26.582Z,9.50
2023-03-24T16:58:54.977Z,5.22
2023-03-24T17:01:34.066Z,5.07
2023-03-24T17:04:16.722Z,10.18
2023-03-24T17:06:50.806Z,5.82
2023-03-24T17:09:17.882Z,4.38
2023-03-24T17:11:55.301Z,8.38
2023-03-24T17:14:23.443Z,8.73
2023-03-24T17:16:53.502Z,7.07
2023-03-24T17:19:23.125Z,6.50
2023-03-24T17:22:02.418Z,7.30
2023-03-24T17:24:35.571Z,4.57
2023-03-24T17:27:03.202Z,5.18
2023-03-24T17:29:32.525Z,7.95
2023-03-24T17:32:09.059Z,10.70
2023-03-24T17:34:37.767Z,9.02
2023-03-24T17:37:06.022Z,10.63
2023-03-24T17:39:32.837Z,6.60
2023-03-24T17:42:01.376Z,9.60
2023-03-24T17:44:28.494Z,5.70
2023-03-24T17:46:55.420Z,7.82
2023-03-24T17:49:22.182Z,5.05
2023-03-24T17:51:48.962Z,6.50
2023-03-24T17:54:16.655Z,7.57
2023-03-24T17:56:43.660Z,9.50
2023-03-24T17:59:10.497Z,9.15
2023-03-24T18:01:39.312Z,7.15
2023-03-24T18:04:07.000Z,9.18
2023-03-24T18:06:33.974Z,7.40
2023-03-24T18:09:00.725Z,7.53
2023-03-24T18:11:28.764Z,4.70
2023-03-24T18:13:58.508Z,6.78
2023-03-24T18:16:28.128Z,12.32
2023-03-24T18:18:55.044Z,10.73
2023-03-24T18:21:22.561Z,8.70
2023-03-24T18:23:50.558Z,7.53
2023-03-24T18:26:18.416Z,7.10
2023-03-24T18:28:46.054Z,5.40
2023-03-24T18:31:20.207Z,8.00
2023-03-24T18:33:52.695Z,7.25
2023-03-24T18:36:27.412Z,7.18
2023-03-24T18:39:01.698Z,11.80
2023-03-24T18:41:30.269Z,4.75
2023-03-24T18:43:59.511Z,7.15
2023-03-24T18:46:28.664Z,8.70
2023-03-24T18:48:56.341Z,10.15
2023-03-24T18:51:28.107Z,10.38
2023-03-24T18:53:55.251Z,8.35
2023-03-24T18:56:23.612Z,7.28
2023-03-24T18:58:53.681Z,8.60
2023-03-24T19:01:25.343Z,13.52
2023-03-24T19:03:53.717Z,13.45
2023-03-24T19:06:21.303Z,6.30
2023-03-24T19:08:52.935Z,9.27
2023-03-24T19:11:20.166Z,9.20
2023-03-24T19:13:50.429Z,5.93
2023-03-24T19:16:19.532Z,8.15
2023-03-24T19:18:48.333Z,11.07
2023-03-24T19:21:16.763Z,7.85
2023-03-24T19:23:44.322Z,7.72
2023-03-24T19:26:11.172Z,10.63
2023-03-24T19:28:37.994Z,7.93
2023-03-24T19:31:12.650Z,5.15
2023-03-24T19:33:39.476Z,9.05
2023-03-24T19:36:08.923Z,6.25
2023-03-24T19:38:37.822Z,11.18
2023-03-24T19:41:12.143Z,6.15
2023-03-24T19:43:39.297Z,5.22
2023-03-24T19:46:08.198Z,5.97
2023-03-24T19:48:35.686Z,6.30
2023-03-24T19:51:02.686Z,3.22
2023-03-24T19:53:30.128Z,3.28
2023-03-24T19:56:01.355Z,3.60
2023-03-24T19:58:32.128Z,4.63
2023-03-24T20:00:58.890Z,5.57
2023-03-24T20:03:25.777Z,10.32
2023-03-24T20:05:52.787Z,5.80
2023-03-24T20:08:29.286Z,3.60
2023-03-24T20:10:57.390Z,5.18
2023-03-24T20:13:25.760Z,3.75
2023-03-24T20:15:52.904Z,4.65
2023-03-24T20:18:21.333Z,6.38
2023-03-24T20:20:48.106Z,5.38
2023-03-24T20:23:14.850Z,5.10
2023-03-24T20:25:42.911Z,4.03
2023-03-24T20:28:09.756Z,13.82
2023-03-24T20:30:36.717Z,7.57
2023-03-24T20:33:03.562Z,5.07
2023-03-24T20:35:30.468Z,5.38
2023-03-24T20:38:00.354Z,4.60
2023-03-24T20:40:27.175Z,2.53
2023-03-24T20:42:54.012Z,4.22
2023-03-24T20:45:20.977Z,3.58
2023-03-24T20:47:49.241Z,3.85
2023-03-24T20:50:16.265Z,4.88
2023-03-24T20:52:43.122Z,6.40
2023-03-24T20:55:11.439Z,3.22
2023-03-24T20:57:39.386Z,5.07
2023-03-24T21:00:15.088Z,3.78
2023-03-24T21:02:42.906Z,5.07
2023-03-24T21:05:10.415Z,4.50
2023-03-24T21:07:38.536Z,10.23
2023-03-24T21:10:07.709Z,2.70
2023-03-24T21:12:35.937Z,6.63
2023-03-24T21:15:19.775Z,6.18
2023-03-24T21:17:46.581Z,6.97
2023-03-24T21:20:13.691Z,3.95
2023-03-24T21:22:53.501Z,5.35
2023-03-24T21:25:41.398Z,8.48
2023-03-24T21:28:09.104Z,5.80
2023-03-24T21:30:37.530Z,5.40
2023-03-24T21:33:04.461Z,3.83
2023-03-24T21:35:31.386Z,5.18
2023-03-24T21:37:58.307Z,6.50
2023-03-24T21:40:25.746Z,6.55
2023-03-24T21:42:54.132Z,10.68
2023-03-24T21:45:23.080Z,5.90
2023-03-24T21:47:50.025Z,5.93
2023-03-24T21:50:23.699Z,6.15
2023-03-24T21:52:53.146Z,9.43
2023-03-24T21:55:22.616Z,7.15
2023-03-24T21:57:51.767Z,7.80
2023-03-24T22:00:23.738Z,6.13
2023-03-24T22:02:53.891Z,5.90
2023-03-24T22:05:27.117Z,6.50
2023-03-24T22:07:56.226Z,7.20
2023-03-24T22:10:23.167Z,11.27
2023-03-24T22:12:54.166Z,8.87
2023-03-24T22:15:22.419Z,7.60
2023-03-24T22:17:51.115Z,4.87
2023-03-24T22:20:18.141Z,3.60
2023-03-24T22:22:45.334Z,5.50
2023-03-24T22:25:17.568Z,7.38
2023-03-24T22:27:46.049Z,2.40
2023-03-24T22:30:14.015Z,5.17
2023-03-24T22:32:41.463Z,6.37
2023-03-24T22:35:09.275Z,10.70
2023-03-24T22:37:36.956Z,7.65
2023-03-24T22:40:06.218Z,4.15
2023-03-24T22:42:33.063Z,6.10
2023-03-24T22:45:00.453Z,8.93
2023-03-24T22:47:28.788Z,5.07
2023-03-24T22:49:55.664Z,5.25
2023-03-24T22:52:22.414Z,4.43
2023-03-24T22:54:52.097Z,10.55
2023-03-24T22:57:18.902Z,4.95
2023-03-24T22:59:45.729Z,6.95
2023-03-24T23:02:12.502Z,7.10
2023-03-24T23:04:40.744Z,6.43
2023-03-24T23:07:07.710Z,5.35
2023-03-24T23:09:34.766Z,4.32
2023-03-24T23:12:01.600Z,6.90
2023-03-24T23:14:28.409Z,8.60
2023-03-24T23:16:58.749Z,8.57
2023-03-24T23:19:25.989Z,7.47
2023-03-24T23:21:52.733Z,4.70
2023-03-24T23:24:19.598Z,6.93
2023-03-24T23:26:47.196Z,6.80
2023-03-24T23:29:13.969Z,6.47
2023-03-24T23:31:41.137Z,7.10
2023-03-24T23:34:12.061Z,7.53
2023-03-24T23:36:44.916Z,8.07
2023-03-24T23:39:12.282Z,11.07
2023-03-24T23:41:39.085Z,9.20
2023-03-24T23:44:05.882Z,6.53
2023-03-24T23:46:33.926Z,7.10
2023-03-24T23:49:01.513Z,7.97
2023-03-24T23:51:28.355Z,7.57
2023-03-24T23:53:55.113Z,3.70
2023-03-24T23:56:22.654Z,11.23
2023-03-24T23:58:51.545Z,10.40
